JST533 YSSY-YMML
Flight info
| Callsign | JST533 |
|---|---|
| Flight time | 1h 9m |
| Altitude | 38000 |
| Route | GROOK1/16R WOL H65 LEECE Q29 ML |
| Aircraft | A320/M-SDE3FGHIRWY/LB1 |
Departure
| Time | 2026-05-05 09:48 |
|---|---|
| Airport | Sydney Kingsford Smith International Airport (YSSY) |
Arrival
| Time | 2026-05-05 10:57 |
|---|---|
| Airport | Melbourne Airport (YMML) |
| Time | Latitude | Longitude | Altitude | Speed | Heading |
|---|---|---|---|---|---|
| 2026-05-05 09:16 | -33.93560 | 151.17685 | 28 ft | 0 kts | 100° |
| 2026-05-05 09:34 | -33.93558 | 151.17671 | 28 ft | 2 kts | 100° |
| 2026-05-05 09:34 | -33.93556 | 151.17654 | 28 ft | 1 kts | 100° |
| 2026-05-05 09:34 | -33.93554 | 151.17642 | 28 ft | 2 kts | 81° |
| 2026-05-05 09:35 | -33.93560 | 151.17625 | 28 ft | 2 kts | 51° |
| 2026-05-05 09:35 | -33.93586 | 151.17612 | 28 ft | 1 kts | 352° |
| 2026-05-05 09:35 | -33.93592 | 151.17613 | 28 ft | 1 kts | 343° |
| 2026-05-05 09:36 | -33.93594 | 151.17613 | 28 ft | 0 kts | 346° |
| 2026-05-05 09:38 | -33.93591 | 151.17613 | 28 ft | 1 kts | 346° |
| 2026-05-05 09:38 | -33.93574 | 151.17607 | 28 ft | 3 kts | 345° |
| 2026-05-05 09:38 | -33.93544 | 151.17598 | 28 ft | 5 kts | 347° |
| 2026-05-05 09:38 | -33.93499 | 151.17586 | 28 ft | 7 kts | 347° |
| 2026-05-05 09:39 | -33.93461 | 151.17540 | 28 ft | 9 kts | 298° |
| 2026-05-05 09:39 | -33.93401 | 151.17508 | 28 ft | 10 kts | 351° |
| 2026-05-05 09:39 | -33.93322 | 151.17490 | 28 ft | 12 kts | 348° |
| 2026-05-05 09:39 | -33.93234 | 151.17465 | 28 ft | 13 kts | 347° |
| 2026-05-05 09:40 | -33.93137 | 151.17439 | 28 ft | 14 kts | 347° |
| 2026-05-05 09:40 | -33.93055 | 151.17416 | 28 ft | 15 kts | 346° |
| 2026-05-05 09:40 | -33.92978 | 151.17377 | 28 ft | 9 kts | 304° |
| 2026-05-05 09:40 | -33.92963 | 151.17322 | 28 ft | 6 kts | 282° |
| 2026-05-05 09:41 | -33.92962 | 151.17316 | 28 ft | 0 kts | 282° |
| 2026-05-05 09:45 | -33.92961 | 151.17311 | 28 ft | 0 kts | 282° |
| 2026-05-05 09:45 | -33.92957 | 151.17259 | 28 ft | 10 kts | 268° |
| 2026-05-05 09:46 | -33.92999 | 151.17181 | 28 ft | 12 kts | 194° |
| 2026-05-05 09:46 | -33.93064 | 151.17191 | 28 ft | 0 kts | 167° |
| 2026-05-05 09:47 | -33.93073 | 151.17194 | 28 ft | 7 kts | 166° |
| 2026-05-05 09:47 | -33.93338 | 151.17262 | 28 ft | 75 kts | 168° |
| 2026-05-05 09:47 | -33.94071 | 151.17456 | 28 ft | 137 kts | 168° |
| 2026-05-05 09:48 | -33.95141 | 151.17731 | 245 ft | 168 kts | 168° |
| 2026-05-05 09:48 | -33.96274 | 151.18007 | 951 ft | 166 kts | 173° |
| 2026-05-05 09:48 | -33.97409 | 151.17967 | 1695 ft | 165 kts | 182° |
| 2026-05-05 09:48 | -33.98550 | 151.17857 | 2224 ft | 172 kts | 182° |
| 2026-05-05 09:49 | -33.99799 | 151.17757 | 2625 ft | 187 kts | 183° |
| 2026-05-05 09:49 | -34.01153 | 151.17679 | 2982 ft | 207 kts | 184° |
| 2026-05-05 09:49 | -34.02642 | 151.17665 | 3249 ft | 223 kts | 175° |
| 2026-05-05 09:49 | -34.04239 | 151.18019 | 3760 ft | 241 kts | 167° |
| 2026-05-05 09:50 | -34.05918 | 151.18550 | 4295 ft | 258 kts | 166° |
| 2026-05-05 09:50 | -34.07672 | 151.19135 | 5061 ft | 266 kts | 166° |
| 2026-05-05 09:50 | -34.09476 | 151.19740 | 5907 ft | 271 kts | 166° |
| 2026-05-05 09:50 | -34.11346 | 151.20366 | 6467 ft | 288 kts | 166° |
| 2026-05-05 09:51 | -34.13338 | 151.21028 | 6972 ft | 307 kts | 166° |
| 2026-05-05 09:51 | -34.15422 | 151.21724 | 7654 ft | 318 kts | 166° |
| 2026-05-05 09:51 | -34.17576 | 151.22397 | 8533 ft | 321 kts | 172° |
| 2026-05-05 09:51 | -34.19783 | 151.22275 | 9353 ft | 321 kts | 198° |
| 2026-05-05 09:52 | -34.21724 | 151.21043 | 10168 ft | 322 kts | 221° |
| 2026-05-05 09:52 | -34.23243 | 151.19046 | 10975 ft | 324 kts | 231° |
| 2026-05-05 09:52 | -34.24684 | 151.16968 | 11707 ft | 328 kts | 230° |
| 2026-05-05 09:52 | -34.26174 | 151.14842 | 12428 ft | 332 kts | 230° |
| 2026-05-05 09:53 | -34.27674 | 151.12718 | 13127 ft | 335 kts | 230° |
| 2026-05-05 09:53 | -34.29195 | 151.10571 | 13834 ft | 338 kts | 230° |
| 2026-05-05 09:53 | -34.30719 | 151.08424 | 14518 ft | 341 kts | 230° |
| 2026-05-05 09:53 | -34.32273 | 151.06232 | 15180 ft | 344 kts | 230° |
| 2026-05-05 09:54 | -34.33830 | 151.04038 | 15841 ft | 347 kts | 230° |
| 2026-05-05 09:54 | -34.35414 | 151.01800 | 16455 ft | 351 kts | 230° |
| 2026-05-05 09:54 | -34.37038 | 150.99626 | 17056 ft | 355 kts | 227° |
| 2026-05-05 09:54 | -34.38815 | 150.97539 | 17636 ft | 359 kts | 224° |
| 2026-05-05 09:55 | -34.40670 | 150.95512 | 18430 ft | 355 kts | 224° |
| 2026-05-05 09:55 | -34.42471 | 150.93567 | 19365 ft | 347 kts | 224° |
| 2026-05-05 09:55 | -34.44270 | 150.91621 | 20042 ft | 347 kts | 224° |
| 2026-05-05 09:55 | -34.46067 | 150.89673 | 20584 ft | 350 kts | 224° |
| 2026-05-05 09:56 | -34.47903 | 150.87676 | 21135 ft | 353 kts | 225° |
| 2026-05-05 09:56 | -34.49718 | 150.85700 | 21663 ft | 356 kts | 225° |
| 2026-05-05 09:56 | -34.51567 | 150.83687 | 22181 ft | 359 kts | 225° |
| 2026-05-05 09:56 | -34.53433 | 150.81654 | 22698 ft | 361 kts | 226° |
| 2026-05-05 09:57 | -34.55230 | 150.79506 | 23202 ft | 362 kts | 230° |
| 2026-05-05 09:57 | -34.56876 | 150.77223 | 23679 ft | 364 kts | 234° |
| 2026-05-05 09:57 | -34.58417 | 150.74767 | 24147 ft | 366 kts | 237° |
| 2026-05-05 09:57 | -34.59910 | 150.72298 | 24618 ft | 368 kts | 237° |
| 2026-05-05 09:58 | -34.61421 | 150.69783 | 25069 ft | 371 kts | 237° |
| 2026-05-05 09:58 | -34.62941 | 150.67253 | 25510 ft | 373 kts | 237° |
| 2026-05-05 09:58 | -34.64484 | 150.64687 | 25960 ft | 376 kts | 237° |
| 2026-05-05 09:58 | -34.66027 | 150.62118 | 26401 ft | 378 kts | 237° |
| 2026-05-05 09:59 | -34.67583 | 150.59531 | 26838 ft | 380 kts | 237° |
| 2026-05-05 09:59 | -34.69141 | 150.56935 | 27258 ft | 383 kts | 237° |
| 2026-05-05 09:59 | -34.70712 | 150.54318 | 27652 ft | 385 kts | 237° |
| 2026-05-05 09:59 | -34.72295 | 150.51677 | 28057 ft | 388 kts | 237° |
| 2026-05-05 10:00 | -34.73872 | 150.49048 | 28456 ft | 390 kts | 238° |
| 2026-05-05 10:00 | -34.75473 | 150.46374 | 28841 ft | 392 kts | 237° |
| 2026-05-05 10:00 | -34.77070 | 150.43707 | 29216 ft | 394 kts | 237° |
| 2026-05-05 10:00 | -34.78692 | 150.40994 | 29573 ft | 397 kts | 237° |
| 2026-05-05 10:01 | -34.80329 | 150.38255 | 29927 ft | 399 kts | 237° |
| 2026-05-05 10:01 | -34.81968 | 150.35513 | 30256 ft | 402 kts | 238° |
| 2026-05-05 10:01 | -34.83601 | 150.32779 | 30592 ft | 404 kts | 238° |
| 2026-05-05 10:01 | -34.85254 | 150.30008 | 30916 ft | 406 kts | 238° |
| 2026-05-05 10:02 | -34.86908 | 150.27235 | 31236 ft | 408 kts | 238° |
| 2026-05-05 10:02 | -34.88579 | 150.24428 | 31545 ft | 410 kts | 238° |
| 2026-05-05 10:02 | -34.90253 | 150.21611 | 31852 ft | 412 kts | 238° |
| 2026-05-05 10:02 | -34.91921 | 150.18805 | 32140 ft | 414 kts | 238° |
| 2026-05-05 10:03 | -34.93612 | 150.15959 | 32406 ft | 416 kts | 239° |
| 2026-05-05 10:03 | -34.95303 | 150.13107 | 32677 ft | 417 kts | 239° |
| 2026-05-05 10:03 | -34.97009 | 150.10233 | 32935 ft | 419 kts | 239° |
| 2026-05-05 10:03 | -34.98716 | 150.07350 | 33206 ft | 420 kts | 239° |
| 2026-05-05 10:04 | -35.00427 | 150.04462 | 33497 ft | 420 kts | 239° |
| 2026-05-05 10:04 | -35.02113 | 150.01610 | 33847 ft | 419 kts | 239° |
| 2026-05-05 10:04 | -35.03833 | 149.98704 | 34143 ft | 418 kts | 239° |
| 2026-05-05 10:04 | -35.05508 | 149.95866 | 34422 ft | 417 kts | 239° |
| 2026-05-05 10:05 | -35.07204 | 149.92995 | 34701 ft | 416 kts | 239° |
| 2026-05-05 10:05 | -35.08879 | 149.90157 | 34974 ft | 415 kts | 239° |
| 2026-05-05 10:05 | -35.10578 | 149.87276 | 35235 ft | 414 kts | 239° |
| 2026-05-05 10:05 | -35.12261 | 149.84419 | 35507 ft | 413 kts | 239° |
| 2026-05-05 10:06 | -35.13921 | 149.81598 | 35744 ft | 412 kts | 239° |
| 2026-05-05 10:06 | -35.15590 | 149.78758 | 35997 ft | 412 kts | 239° |
| 2026-05-05 10:06 | -35.17260 | 149.75911 | 36251 ft | 411 kts | 239° |
| 2026-05-05 10:06 | -35.18910 | 149.73100 | 36476 ft | 411 kts | 239° |
| 2026-05-05 10:07 | -35.20573 | 149.70262 | 36673 ft | 412 kts | 239° |
| 2026-05-05 10:07 | -35.22237 | 149.67419 | 36854 ft | 413 kts | 239° |
| 2026-05-05 10:07 | -35.23920 | 149.64542 | 37015 ft | 414 kts | 239° |
| 2026-05-05 10:07 | -35.25588 | 149.61691 | 37194 ft | 415 kts | 239° |
| 2026-05-05 10:08 | -35.27273 | 149.58809 | 37354 ft | 416 kts | 239° |
| 2026-05-05 10:08 | -35.28937 | 149.55959 | 37501 ft | 417 kts | 239° |
| 2026-05-05 10:08 | -35.30618 | 149.53079 | 37654 ft | 417 kts | 239° |
| 2026-05-05 10:08 | -35.32293 | 149.50205 | 37797 ft | 418 kts | 239° |
| 2026-05-05 10:09 | -35.33982 | 149.47305 | 37937 ft | 419 kts | 239° |
| 2026-05-05 10:09 | -35.35676 | 149.44395 | 38070 ft | 419 kts | 239° |
| 2026-05-05 10:09 | -35.37368 | 149.41486 | 38175 ft | 420 kts | 239° |
| 2026-05-05 10:09 | -35.39061 | 149.38571 | 38182 ft | 421 kts | 239° |
| 2026-05-05 10:10 | -35.42447 | 149.32736 | 38184 ft | 421 kts | 240° |
| 2026-05-05 10:10 | -35.45823 | 149.26910 | 38186 ft | 421 kts | 239° |
| 2026-05-05 10:11 | -35.49199 | 149.21074 | 38184 ft | 421 kts | 239° |
| 2026-05-05 10:11 | -35.52580 | 149.15216 | 38183 ft | 421 kts | 239° |
| 2026-05-05 10:12 | -35.55956 | 149.09361 | 38179 ft | 421 kts | 239° |
| 2026-05-05 10:12 | -35.59339 | 149.03484 | 38179 ft | 422 kts | 239° |
| 2026-05-05 10:13 | -35.62711 | 148.97613 | 38176 ft | 422 kts | 239° |
| 2026-05-05 10:13 | -35.66081 | 148.91734 | 38180 ft | 422 kts | 239° |
| 2026-05-05 10:14 | -35.69457 | 148.85840 | 38182 ft | 422 kts | 239° |
| 2026-05-05 10:14 | -35.72827 | 148.79944 | 38189 ft | 422 kts | 239° |
| 2026-05-05 10:15 | -35.76191 | 148.74048 | 38195 ft | 422 kts | 239° |
| 2026-05-05 10:15 | -35.79559 | 148.68135 | 38203 ft | 422 kts | 239° |
| 2026-05-05 10:16 | -35.82903 | 148.62254 | 38206 ft | 422 kts | 239° |
| 2026-05-05 10:16 | -35.86270 | 148.56320 | 38206 ft | 422 kts | 239° |
| 2026-05-05 10:17 | -35.89605 | 148.50429 | 38210 ft | 422 kts | 239° |
| 2026-05-05 10:17 | -35.92970 | 148.44461 | 38209 ft | 422 kts | 239° |
| 2026-05-05 10:18 | -35.96291 | 148.38557 | 38223 ft | 421 kts | 239° |
| 2026-05-05 10:18 | -35.99617 | 148.32634 | 38222 ft | 421 kts | 239° |
| 2026-05-05 10:19 | -36.02960 | 148.26671 | 38211 ft | 420 kts | 239° |
| 2026-05-05 10:19 | -36.06268 | 148.20760 | 38210 ft | 420 kts | 239° |
| 2026-05-05 10:20 | -36.09581 | 148.14827 | 38210 ft | 421 kts | 239° |
| 2026-05-05 10:20 | -36.12891 | 148.08900 | 38210 ft | 421 kts | 239° |
| 2026-05-05 10:21 | -36.16230 | 148.02936 | 38218 ft | 422 kts | 239° |
| 2026-05-05 10:21 | -36.19559 | 147.96976 | 38229 ft | 421 kts | 239° |
| 2026-05-05 10:22 | -36.22879 | 147.91016 | 38227 ft | 421 kts | 239° |
| 2026-05-05 10:22 | -36.26210 | 147.85030 | 38218 ft | 421 kts | 239° |
| 2026-05-05 10:23 | -36.29514 | 147.79082 | 38222 ft | 421 kts | 239° |
| 2026-05-05 10:23 | -36.32844 | 147.73070 | 38226 ft | 421 kts | 239° |
| 2026-05-05 10:24 | -36.36140 | 147.67111 | 38220 ft | 421 kts | 239° |
| 2026-05-05 10:24 | -36.39461 | 147.61084 | 38223 ft | 421 kts | 239° |
| 2026-05-05 10:25 | -36.42753 | 147.55103 | 38221 ft | 420 kts | 239° |
| 2026-05-05 10:25 | -36.46041 | 147.49116 | 38215 ft | 420 kts | 239° |
| 2026-05-05 10:26 | -36.49324 | 147.43126 | 38216 ft | 420 kts | 239° |
| 2026-05-05 10:26 | -36.52608 | 147.37128 | 38217 ft | 420 kts | 239° |
| 2026-05-05 10:27 | -36.55882 | 147.31133 | 38214 ft | 420 kts | 239° |
| 2026-05-05 10:27 | -36.59172 | 147.25101 | 38217 ft | 420 kts | 239° |
| 2026-05-05 10:28 | -36.62447 | 147.19084 | 38208 ft | 420 kts | 239° |
| 2026-05-05 10:28 | -36.65727 | 147.13045 | 38161 ft | 421 kts | 239° |
| 2026-05-05 10:29 | -36.67352 | 147.10049 | 37801 ft | 420 kts | 239° |
| 2026-05-05 10:29 | -36.68969 | 147.07062 | 37309 ft | 419 kts | 239° |
| 2026-05-05 10:29 | -36.70608 | 147.04033 | 36732 ft | 419 kts | 238° |
| 2026-05-05 10:29 | -36.72228 | 147.01039 | 36046 ft | 421 kts | 238° |
| 2026-05-05 10:30 | -36.73861 | 146.98019 | 35387 ft | 425 kts | 238° |
| 2026-05-05 10:30 | -36.75517 | 146.94949 | 34678 ft | 430 kts | 237° |
| 2026-05-05 10:30 | -36.77173 | 146.91878 | 33810 ft | 436 kts | 237° |
| 2026-05-05 10:30 | -36.78865 | 146.88741 | 32952 ft | 439 kts | 236° |
| 2026-05-05 10:31 | -36.80564 | 146.85590 | 32347 ft | 436 kts | 236° |
| 2026-05-05 10:31 | -36.82234 | 146.82492 | 31798 ft | 432 kts | 236° |
| 2026-05-05 10:31 | -36.83899 | 146.79401 | 31252 ft | 429 kts | 236° |
| 2026-05-05 10:31 | -36.85561 | 146.76308 | 30717 ft | 425 kts | 236° |
| 2026-05-05 10:32 | -36.87190 | 146.73276 | 30158 ft | 422 kts | 236° |
| 2026-05-05 10:32 | -36.88822 | 146.70236 | 29621 ft | 418 kts | 235° |
| 2026-05-05 10:32 | -36.90409 | 146.67276 | 29156 ft | 412 kts | 235° |
| 2026-05-05 10:32 | -36.92009 | 146.64290 | 28716 ft | 406 kts | 235° |
| 2026-05-05 10:33 | -36.93557 | 146.61397 | 28277 ft | 400 kts | 235° |
| 2026-05-05 10:33 | -36.95103 | 146.58504 | 27807 ft | 396 kts | 235° |
| 2026-05-05 10:33 | -36.96608 | 146.55687 | 27338 ft | 392 kts | 235° |
| 2026-05-05 10:33 | -36.98121 | 146.52852 | 26870 ft | 388 kts | 235° |
| 2026-05-05 10:34 | -36.99593 | 146.50090 | 26420 ft | 384 kts | 235° |
| 2026-05-05 10:34 | -37.01070 | 146.47314 | 25974 ft | 380 kts | 235° |
| 2026-05-05 10:34 | -37.02513 | 146.44604 | 25532 ft | 376 kts | 235° |
| 2026-05-05 10:34 | -37.03963 | 146.41876 | 25091 ft | 373 kts | 235° |
| 2026-05-05 10:35 | -37.05391 | 146.39186 | 24660 ft | 369 kts | 235° |
| 2026-05-05 10:35 | -37.06791 | 146.36551 | 24228 ft | 366 kts | 235° |
| 2026-05-05 10:35 | -37.08199 | 146.33897 | 23795 ft | 363 kts | 236° |
| 2026-05-05 10:35 | -37.09583 | 146.31290 | 23374 ft | 360 kts | 236° |
| 2026-05-05 10:36 | -37.10953 | 146.28705 | 22947 ft | 358 kts | 236° |
| 2026-05-05 10:36 | -37.12318 | 146.26125 | 22508 ft | 356 kts | 236° |
| 2026-05-05 10:36 | -37.13686 | 146.23540 | 22074 ft | 354 kts | 236° |
| 2026-05-05 10:36 | -37.15033 | 146.20990 | 21629 ft | 353 kts | 236° |
| 2026-05-05 10:37 | -37.16382 | 146.18437 | 21197 ft | 352 kts | 236° |
| 2026-05-05 10:37 | -37.17730 | 146.15883 | 20762 ft | 350 kts | 236° |
| 2026-05-05 10:37 | -37.19069 | 146.13345 | 20328 ft | 349 kts | 236° |
| 2026-05-05 10:37 | -37.20412 | 146.10800 | 19887 ft | 349 kts | 236° |
| 2026-05-05 10:38 | -37.21735 | 146.08285 | 19466 ft | 348 kts | 236° |
| 2026-05-05 10:38 | -37.23066 | 146.05756 | 19041 ft | 347 kts | 236° |
| 2026-05-05 10:38 | -37.24386 | 146.03242 | 18607 ft | 346 kts | 236° |
| 2026-05-05 10:38 | -37.25701 | 146.00735 | 18172 ft | 345 kts | 236° |
| 2026-05-05 10:39 | -37.27025 | 145.98213 | 17733 ft | 344 kts | 236° |
| 2026-05-05 10:39 | -37.28340 | 145.95705 | 17296 ft | 344 kts | 236° |
| 2026-05-05 10:39 | -37.29636 | 145.93231 | 16873 ft | 343 kts | 236° |
| 2026-05-05 10:39 | -37.30942 | 145.90739 | 16448 ft | 341 kts | 236° |
| 2026-05-05 10:40 | -37.32243 | 145.88264 | 16032 ft | 340 kts | 236° |
| 2026-05-05 10:40 | -37.33537 | 145.85803 | 15619 ft | 338 kts | 236° |
| 2026-05-05 10:40 | -37.34843 | 145.83316 | 15196 ft | 337 kts | 237° |
| 2026-05-05 10:40 | -37.36118 | 145.80885 | 14778 ft | 335 kts | 237° |
| 2026-05-05 10:41 | -37.37384 | 145.78470 | 14371 ft | 333 kts | 237° |
| 2026-05-05 10:41 | -37.38665 | 145.76024 | 13963 ft | 331 kts | 237° |
| 2026-05-05 10:41 | -37.39920 | 145.73624 | 13551 ft | 330 kts | 237° |
| 2026-05-05 10:41 | -37.41164 | 145.71243 | 13135 ft | 328 kts | 237° |
| 2026-05-05 10:42 | -37.43653 | 145.66475 | 12286 ft | 325 kts | 237° |
| 2026-05-05 10:42 | -37.44894 | 145.64094 | 11848 ft | 325 kts | 237° |
| 2026-05-05 10:42 | -37.46127 | 145.61742 | 11421 ft | 323 kts | 236° |
| 2026-05-05 10:43 | -37.47376 | 145.59366 | 10990 ft | 322 kts | 236° |
| 2026-05-05 10:43 | -37.48595 | 145.57047 | 10562 ft | 321 kts | 236° |
| 2026-05-05 10:43 | -37.49819 | 145.54717 | 10290 ft | 314 kts | 236° |
| 2026-05-05 10:43 | -37.50997 | 145.52469 | 10175 ft | 302 kts | 236° |
| 2026-05-05 10:44 | -37.52143 | 145.50281 | 9902 ft | 297 kts | 236° |
| 2026-05-05 10:44 | -37.53270 | 145.48128 | 9612 ft | 292 kts | 236° |
| 2026-05-05 10:44 | -37.54371 | 145.46024 | 9372 ft | 286 kts | 237° |
| 2026-05-05 10:44 | -37.55452 | 145.43957 | 9116 ft | 282 kts | 237° |
| 2026-05-05 10:45 | -37.56532 | 145.41890 | 8851 ft | 278 kts | 237° |
| 2026-05-05 10:45 | -37.57581 | 145.39880 | 8543 ft | 270 kts | 237° |
| 2026-05-05 10:45 | -37.58582 | 145.37962 | 8098 ft | 262 kts | 237° |
| 2026-05-05 10:45 | -37.59572 | 145.36066 | 7610 ft | 255 kts | 237° |
| 2026-05-05 10:46 | -37.60526 | 145.34236 | 7141 ft | 248 kts | 238° |
| 2026-05-05 10:46 | -37.61473 | 145.32416 | 6679 ft | 243 kts | 238° |
| 2026-05-05 10:46 | -37.62388 | 145.30656 | 6307 ft | 244 kts | 238° |
| 2026-05-05 10:46 | -37.63320 | 145.28863 | 5951 ft | 246 kts | 238° |
| 2026-05-05 10:47 | -37.64247 | 145.27043 | 5603 ft | 247 kts | 243° |
| 2026-05-05 10:47 | -37.64852 | 145.25011 | 5264 ft | 247 kts | 259° |
| 2026-05-05 10:47 | -37.65113 | 145.22879 | 5014 ft | 243 kts | 263° |
| 2026-05-05 10:47 | -37.65471 | 145.20818 | 4871 ft | 242 kts | 245° |
| 2026-05-05 10:48 | -37.66532 | 145.19215 | 4742 ft | 241 kts | 215° |
| 2026-05-05 10:48 | -37.68015 | 145.18265 | 4634 ft | 242 kts | 204° |
| 2026-05-05 10:48 | -37.69583 | 145.17479 | 4534 ft | 242 kts | 202° |
| 2026-05-05 10:48 | -37.71162 | 145.16725 | 4435 ft | 241 kts | 202° |
| 2026-05-05 10:49 | -37.72724 | 145.15987 | 4334 ft | 241 kts | 202° |
| 2026-05-05 10:49 | -37.74300 | 145.15243 | 4233 ft | 240 kts | 202° |
| 2026-05-05 10:49 | -37.75878 | 145.14502 | 4128 ft | 240 kts | 202° |
| 2026-05-05 10:49 | -37.77423 | 145.13741 | 4024 ft | 239 kts | 209° |
| 2026-05-05 10:50 | -37.78667 | 145.12428 | 3919 ft | 235 kts | 232° |
| 2026-05-05 10:50 | -37.79656 | 145.10777 | 3819 ft | 235 kts | 236° |
| 2026-05-05 10:50 | -37.80590 | 145.09078 | 3716 ft | 235 kts | 237° |
| 2026-05-05 10:50 | -37.81513 | 145.07378 | 3618 ft | 234 kts | 237° |
| 2026-05-05 10:51 | -37.82437 | 145.05676 | 3515 ft | 235 kts | 237° |
| 2026-05-05 10:51 | -37.83179 | 145.03862 | 3403 ft | 233 kts | 258° |
| 2026-05-05 10:51 | -37.83297 | 145.01819 | 3309 ft | 232 kts | 272° |
| 2026-05-05 10:51 | -37.83243 | 144.99797 | 3206 ft | 231 kts | 272° |
| 2026-05-05 10:52 | -37.83211 | 144.97769 | 3106 ft | 227 kts | 271° |
| 2026-05-05 10:52 | -37.83222 | 144.95811 | 2999 ft | 220 kts | 269° |
| 2026-05-05 10:52 | -37.83258 | 144.93921 | 2945 ft | 210 kts | 269° |
| 2026-05-05 10:52 | -37.83304 | 144.92116 | 2930 ft | 200 kts | 268° |
| 2026-05-05 10:53 | -37.83353 | 144.90416 | 2925 ft | 188 kts | 268° |
| 2026-05-05 10:53 | -37.83402 | 144.88818 | 2964 ft | 175 kts | 268° |
| 2026-05-05 10:53 | -37.83273 | 144.87318 | 2971 ft | 173 kts | 296° |
| 2026-05-05 10:53 | -37.82347 | 144.86403 | 2912 ft | 176 kts | 345° |
| 2026-05-05 10:54 | -37.81130 | 144.86232 | 2750 ft | 177 kts | 353° |
| 2026-05-05 10:54 | -37.79910 | 144.86090 | 2548 ft | 175 kts | 352° |
| 2026-05-05 10:54 | -37.78721 | 144.85924 | 2318 ft | 170 kts | 351° |
| 2026-05-05 10:54 | -37.77575 | 144.85739 | 2062 ft | 161 kts | 349° |
| 2026-05-05 10:55 | -37.76491 | 144.85551 | 1838 ft | 152 kts | 349° |
| 2026-05-05 10:55 | -37.75478 | 144.85367 | 1661 ft | 143 kts | 349° |
| 2026-05-05 10:55 | -37.74530 | 144.85193 | 1462 ft | 132 kts | 348° |
| 2026-05-05 10:55 | -37.73626 | 144.85025 | 1294 ft | 129 kts | 349° |
| 2026-05-05 10:56 | -37.72735 | 144.84857 | 1135 ft | 129 kts | 349° |
| 2026-05-05 10:56 | -37.71849 | 144.84691 | 964 ft | 129 kts | 349° |
| 2026-05-05 10:56 | -37.70959 | 144.84528 | 801 ft | 128 kts | 349° |
| 2026-05-05 10:56 | -37.70078 | 144.84381 | 649 ft | 128 kts | 351° |
| 2026-05-05 10:57 | -37.69204 | 144.84229 | 504 ft | 127 kts | 348° |
| 2026-05-05 10:57 | -37.68327 | 144.84059 | 355 ft | 126 kts | 351° |
| 2026-05-05 10:57 | -37.67563 | 144.83910 | 369 ft | 89 kts | 351° |
| 2026-05-05 10:57 | -37.67113 | 144.83832 | 382 ft | 40 kts | 359° |
| 2026-05-05 10:58 | -37.66933 | 144.83864 | 389 ft | 15 kts | 19° |
| 2026-05-05 10:58 | -37.66865 | 144.83897 | 391 ft | 7 kts | 22° |
| 2026-05-05 10:58 | -37.66839 | 144.83911 | 391 ft | 1 kts | 22° |
| 2026-05-05 10:58 | -37.66829 | 144.83916 | 391 ft | 1 kts | 21° |
| 2026-05-05 10:59 | -37.66817 | 144.83922 | 391 ft | 1 kts | 21° |
| 2026-05-05 10:59 | -37.66798 | 144.83942 | 392 ft | 9 kts | 66° |
| 2026-05-05 10:59 | -37.66862 | 144.84001 | 389 ft | 15 kts | 173° |
| 2026-05-05 10:59 | -37.66980 | 144.84018 | 386 ft | 18 kts | 173° |
| 2026-05-05 11:00 | -37.67112 | 144.84044 | 382 ft | 20 kts | 172° |
| 2026-05-05 11:00 | -37.67266 | 144.84073 | 378 ft | 23 kts | 172° |
| 2026-05-05 11:00 | -37.67404 | 144.84099 | 375 ft | 12 kts | 170° |
| 2026-05-05 11:00 | -37.67492 | 144.84137 | 373 ft | 14 kts | 129° |
| 2026-05-05 11:01 | -37.67493 | 144.84258 | 375 ft | 14 kts | 80° |
| 2026-05-05 11:01 | -37.67480 | 144.84364 | 377 ft | 13 kts | 80° |
| 2026-05-05 11:01 | -37.67466 | 144.84474 | 380 ft | 12 kts | 81° |
| 2026-05-05 11:01 | -37.67470 | 144.84575 | 382 ft | 12 kts | 99° |
| 2026-05-05 11:02 | -37.67464 | 144.84670 | 384 ft | 11 kts | 82° |
| 2026-05-05 11:02 | -37.67471 | 144.84738 | 385 ft | 9 kts | 170° |
| 2026-05-05 11:02 | -37.67523 | 144.84741 | 383 ft | 3 kts | 172° |
| 2026-05-05 11:02 | -37.67533 | 144.84743 | 383 ft | 0 kts | 171° |